createdAt,value
2019-03-18T00:00:40.057Z,33.67
2019-03-18T00:03:09.389Z,33.81
2019-03-18T00:05:38.493Z,33.91
2019-03-18T00:08:07.628Z,33.88
2019-03-18T00:10:37.212Z,33.88
2019-03-18T00:13:06.454Z,34.06
2019-03-18T00:15:35.853Z,34.00
2019-03-18T00:18:05.070Z,33.98
2019-03-18T00:20:34.499Z,34.01
2019-03-18T00:23:03.683Z,34.29
2019-03-18T00:25:32.819Z,34.46
2019-03-18T00:28:02.008Z,34.81
2019-03-18T00:30:31.226Z,34.70
2019-03-18T00:33:03.091Z,34.30
2019-03-18T00:35:31.417Z,34.08
2019-03-18T00:38:00.683Z,33.85
2019-03-18T00:40:29.901Z,33.92
2019-03-18T00:42:59.004Z,34.09
2019-03-18T00:45:28.217Z,34.25
2019-03-18T00:47:57.527Z,34.46
2019-03-18T00:50:26.894Z,34.55
2019-03-18T00:52:56.976Z,34.86
2019-03-18T00:55:26.113Z,35.15
2019-03-18T00:57:55.270Z,35.24
2019-03-18T01:00:24.736Z,35.39
2019-03-18T01:02:53.931Z,35.67
2019-03-18T01:05:23.223Z,35.74
2019-03-18T01:07:52.480Z,35.99
2019-03-18T01:10:21.679Z,36.20
2019-03-18T01:12:50.915Z,36.35
2019-03-18T01:15:27.921Z,36.82
2019-03-18T01:17:50.885Z,37.69
2019-03-18T01:20:20.164Z,38.40
2019-03-18T01:22:49.287Z,39.17
2019-03-18T01:25:18.504Z,39.35
2019-03-18T01:27:47.664Z,39.74
2019-03-18T01:30:16.890Z,39.79
2019-03-18T01:32:46.189Z,40.42
2019-03-18T01:35:15.430Z,40.46
2019-03-18T01:37:44.646Z,40.75
2019-03-18T01:40:16.805Z,41.03
2019-03-18T01:42:46.053Z,40.83
2019-03-18T01:45:15.273Z,41.05
2019-03-18T01:47:44.466Z,40.75
2019-03-18T01:50:16.593Z,41.05
2019-03-18T01:52:45.889Z,41.06
2019-03-18T01:55:15.106Z,41.66
2019-03-18T01:57:44.383Z,41.66
2019-03-18T02:00:15.052Z,41.65
2019-03-18T02:02:44.266Z,42.49
2019-03-18T02:05:13.457Z,42.25
2019-03-18T02:07:42.665Z,42.77
2019-03-18T02:10:16.116Z,43.16
2019-03-18T02:12:45.374Z,43.54
2019-03-18T02:15:15.686Z,44.12
2019-03-18T02:17:44.961Z,45.36
2019-03-18T02:20:19.557Z,47.39
2019-03-18T02:22:48.444Z,47.13
2019-03-18T02:25:17.574Z,47.90
2019-03-18T02:27:46.799Z,48.47
2019-03-18T02:30:19.359Z,48.57
2019-03-18T02:32:48.512Z,48.53
2019-03-18T02:35:17.752Z,49.17
2019-03-18T02:37:46.916Z,49.45
2019-03-18T02:40:16.085Z,49.50
2019-03-18T02:42:45.425Z,50.68
2019-03-18T02:45:14.611Z,50.34
2019-03-18T02:47:43.823Z,50.18
2019-03-18T02:50:14.459Z,50.59
2019-03-18T02:52:43.671Z,50.50
2019-03-18T02:55:12.869Z,50.77
2019-03-18T02:57:42.049Z,51.52
2019-03-18T03:00:15.127Z,51.37
2019-03-18T03:02:44.329Z,52.29
2019-03-18T03:05:14.388Z,52.78
2019-03-18T03:07:43.562Z,53.03
2019-03-18T03:10:13.993Z,52.79
2019-03-18T03:12:43.277Z,53.86
2019-03-18T03:15:16.273Z,52.94
2019-03-18T03:17:45.482Z,53.32
2019-03-18T03:20:14.733Z,53.64
2019-03-18T03:22:43.927Z,54.18
2019-03-18T03:25:13.140Z,54.72
2019-03-18T03:27:42.646Z,53.83
2019-03-18T03:30:13.761Z,50.64
2019-03-18T03:32:42.955Z,50.81
2019-03-18T03:35:12.492Z,51.62
2019-03-18T03:37:41.632Z,51.99
2019-03-18T03:40:12.222Z,52.14
2019-03-18T03:42:41.745Z,52.34
2019-03-18T03:45:17.542Z,52.81
2019-03-18T03:47:46.760Z,52.95
2019-03-18T03:50:16.335Z,53.05
2019-03-18T03:52:45.525Z,53.56
2019-03-18T03:55:15.043Z,54.05
2019-03-18T03:57:44.771Z,54.17
2019-03-18T04:00:15.706Z,54.60
2019-03-18T04:02:44.906Z,55.10
2019-03-18T04:05:14.333Z,55.10
2019-03-18T04:07:43.635Z,55.09
2019-03-18T04:10:14.241Z,54.83
2019-03-18T04:12:43.486Z,54.86
2019-03-18T04:15:13.750Z,55.29
2019-03-18T04:17:42.961Z,55.31
2019-03-18T04:20:14.549Z,55.21
2019-03-18T04:22:43.843Z,55.49
2019-03-18T04:25:13.358Z,56.00
2019-03-18T04:27:42.745Z,56.16
2019-03-18T04:30:13.830Z,56.17
2019-03-18T04:32:43.046Z,56.25
2019-03-18T04:35:12.307Z,56.27
2019-03-18T04:37:41.511Z,56.78
2019-03-18T04:40:11.422Z,56.78
2019-03-18T04:42:40.580Z,56.75
2019-03-18T04:45:10.881Z,56.64
2019-03-18T04:47:40.068Z,56.60
2019-03-18T04:50:13.269Z,56.45
2019-03-18T04:52:42.786Z,56.08
2019-03-18T04:55:11.987Z,56.18
2019-03-18T04:57:41.315Z,55.63
2019-03-18T05:00:12.432Z,55.71
2019-03-18T05:02:41.640Z,55.66
2019-03-18T05:05:10.968Z,55.67
2019-03-18T05:07:40.262Z,55.41
2019-03-18T05:10:10.669Z,55.41
2019-03-18T05:12:39.846Z,55.43
2019-03-18T05:15:11.888Z,55.09
2019-03-18T05:17:41.110Z,54.92
2019-03-18T05:20:11.581Z,54.56
2019-03-18T05:22:40.723Z,54.44
2019-03-18T05:25:10.797Z,54.13
2019-03-18T05:27:39.892Z,53.87
2019-03-18T05:30:12.582Z,53.74
2019-03-18T05:32:41.909Z,53.60
2019-03-18T05:35:11.160Z,53.39
2019-03-18T05:37:40.486Z,53.22
2019-03-18T05:40:10.065Z,52.99
2019-03-18T05:42:39.228Z,52.72
2019-03-18T05:45:10.707Z,52.73
2019-03-18T05:47:40.130Z,52.33
2019-03-18T05:50:11.402Z,52.39
2019-03-18T05:52:40.694Z,52.32
2019-03-18T05:55:10.575Z,52.37
2019-03-18T05:57:39.805Z,52.47
2019-03-18T06:00:12.080Z,52.28
2019-03-18T06:02:41.302Z,52.14
2019-03-18T06:05:10.721Z,52.27
2019-03-18T06:07:39.833Z,52.23
2019-03-18T06:10:11.257Z,52.06
2019-03-18T06:12:40.539Z,51.93
2019-03-18T06:15:11.541Z,51.56
2019-03-18T06:17:51.604Z,51.56
2019-03-18T06:20:12.150Z,51.28
2019-03-18T06:22:41.364Z,51.37
2019-03-18T06:25:10.700Z,51.25
2019-03-18T06:27:39.981Z,51.05
2019-03-18T06:30:14.541Z,51.03
2019-03-18T06:32:43.731Z,51.05
2019-03-18T06:35:12.994Z,50.69
2019-03-18T06:37:42.722Z,50.25
2019-03-18T06:40:13.532Z,49.72
2019-03-18T06:42:42.808Z,49.58
2019-03-18T06:45:12.855Z,49.54
2019-03-18T06:47:41.950Z,49.29
2019-03-18T06:50:12.714Z,49.14
2019-03-18T06:52:42.128Z,48.89
2019-03-18T06:55:11.397Z,48.66
2019-03-18T06:57:40.687Z,47.96
2019-03-18T07:00:17.168Z,47.10
2019-03-18T07:02:46.315Z,46.84
2019-03-18T07:05:15.503Z,46.36
2019-03-18T07:07:44.712Z,45.64
2019-03-18T07:10:14.347Z,45.07
2019-03-18T07:12:43.563Z,44.60
2019-03-18T07:15:12.873Z,44.33
2019-03-18T07:17:42.128Z,43.60
2019-03-18T07:20:12.507Z,43.28
2019-03-18T07:22:41.732Z,42.77
2019-03-18T07:25:11.356Z,42.71
2019-03-18T07:27:40.600Z,42.58
2019-03-18T07:30:14.518Z,41.68
2019-03-18T07:32:43.755Z,41.25
2019-03-18T07:35:13.269Z,40.58
2019-03-18T07:37:42.499Z,41.55
2019-03-18T07:40:15.841Z,42.83
2019-03-18T07:42:45.023Z,43.26
2019-03-18T07:45:15.990Z,43.89
2019-03-18T07:47:45.403Z,43.96
2019-03-18T07:50:15.762Z,44.44
2019-03-18T07:52:45.037Z,44.10
2019-03-18T07:55:14.315Z,43.68
2019-03-18T07:57:43.585Z,43.69
2019-03-18T08:00:16.835Z,43.77
2019-03-18T08:02:46.069Z,44.04
2019-03-18T08:05:15.379Z,44.26
2019-03-18T08:07:44.507Z,44.04
2019-03-18T08:10:14.335Z,43.37
2019-03-18T08:12:43.676Z,42.42
2019-03-18T08:15:13.787Z,41.39
2019-03-18T08:17:42.977Z,40.94
2019-03-18T08:20:13.242Z,40.84
2019-03-18T08:22:42.501Z,40.86
2019-03-18T08:25:12.150Z,41.33
2019-03-18T08:27:41.420Z,39.91
2019-03-18T08:30:12.962Z,38.58
2019-03-18T08:32:42.172Z,37.93
2019-03-18T08:35:11.491Z,37.13
2019-03-18T08:37:40.792Z,36.89
2019-03-18T08:40:11.412Z,36.28
2019-03-18T08:42:40.664Z,35.94
2019-03-18T08:45:12.168Z,35.33
2019-03-18T08:47:41.463Z,34.67
2019-03-18T08:50:12.676Z,34.40
2019-03-18T08:52:42.188Z,33.63
2019-03-18T08:55:12.098Z,33.55
2019-03-18T08:57:41.410Z,33.75
2019-03-18T09:00:12.994Z,33.33
2019-03-18T09:02:42.197Z,33.18
2019-03-18T09:05:11.525Z,32.75
2019-03-18T09:07:40.824Z,32.65
2019-03-18T09:10:14.011Z,32.34
2019-03-18T09:12:44.251Z,32.06
2019-03-18T09:15:13.850Z,32.20
2019-03-18T09:17:43.056Z,32.16
2019-03-18T09:20:17.432Z,32.72
2019-03-18T09:22:46.624Z,31.99
2019-03-18T09:25:15.968Z,31.26
2019-03-18T09:27:45.068Z,30.80
2019-03-18T09:30:20.925Z,30.42
2019-03-18T09:32:50.141Z,30.52
2019-03-18T09:35:19.389Z,29.93
2019-03-18T09:37:48.680Z,29.16
2019-03-18T09:40:18.193Z,28.96
2019-03-18T09:42:47.440Z,28.81
2019-03-18T09:45:17.602Z,28.56
2019-03-18T09:47:46.801Z,28.70
2019-03-18T09:50:16.445Z,28.47
2019-03-18T09:52:45.653Z,28.90
2019-03-18T09:55:15.109Z,28.73
2019-03-18T09:57:44.350Z,28.44
2019-03-18T10:00:15.903Z,28.29
2019-03-18T10:02:45.102Z,28.31
2019-03-18T10:05:14.452Z,28.15
2019-03-18T10:07:43.655Z,28.10
2019-03-18T10:10:16.198Z,27.75
2019-03-18T10:12:45.461Z,27.76
2019-03-18T10:15:16.915Z,27.80
2019-03-18T10:17:46.140Z,27.49
2019-03-18T10:20:15.403Z,26.98
2019-03-18T10:22:44.599Z,26.46
2019-03-18T10:25:14.069Z,27.31
2019-03-18T10:27:43.596Z,27.58
2019-03-18T10:30:14.321Z,26.93
2019-03-18T10:32:43.551Z,27.34
2019-03-18T10:35:12.988Z,26.94
2019-03-18T10:37:42.205Z,26.61
2019-03-18T10:40:15.491Z,27.49
2019-03-18T10:42:44.731Z,27.22
2019-03-18T10:45:14.858Z,27.03
2019-03-18T10:47:44.047Z,27.04
2019-03-18T10:50:19.388Z,26.67
2019-03-18T10:52:48.447Z,26.50
2019-03-18T10:55:17.731Z,26.78
2019-03-18T10:57:46.914Z,26.68
2019-03-18T11:00:19.842Z,25.89
2019-03-18T11:02:49.234Z,26.10
2019-03-18T11:05:18.566Z,26.56
2019-03-18T11:07:47.804Z,26.61
2019-03-18T11:10:17.287Z,26.65
2019-03-18T11:12:47.025Z,26.27
2019-03-18T11:15:18.474Z,25.41
2019-03-18T11:17:47.750Z,25.33
2019-03-18T11:20:17.476Z,26.39
2019-03-18T11:22:46.876Z,26.13
2019-03-18T11:25:17.031Z,25.90
2019-03-18T11:27:46.267Z,25.43
2019-03-18T11:30:19.445Z,24.60
2019-03-18T11:32:48.679Z,24.84
2019-03-18T11:35:17.865Z,24.39
2019-03-18T11:37:47.075Z,23.87
2019-03-18T11:40:17.693Z,23.58
2019-03-18T11:42:47.221Z,23.73
2019-03-18T11:45:17.082Z,24.70
2019-03-18T11:47:46.334Z,24.46
2019-03-18T11:50:19.801Z,24.19
2019-03-18T11:52:49.336Z,23.71
2019-03-18T11:55:20.579Z,23.96
2019-03-18T11:57:49.812Z,23.44
2019-03-18T12:00:23.356Z,23.28
2019-03-18T12:02:52.543Z,23.85
2019-03-18T12:05:26.353Z,24.32
2019-03-18T12:07:55.654Z,23.79
2019-03-18T12:10:25.992Z,23.27
2019-03-18T12:12:55.664Z,22.64
2019-03-18T12:15:27.944Z,23.79
2019-03-18T12:17:57.063Z,23.04
2019-03-18T12:20:26.307Z,22.88
2019-03-18T12:22:55.497Z,22.85
2019-03-18T12:25:24.896Z,22.86
2019-03-18T12:27:54.076Z,22.52
2019-03-18T12:30:24.379Z,22.40
2019-03-18T12:32:53.509Z,22.43
2019-03-18T12:35:22.705Z,22.41
2019-03-18T12:37:54.660Z,22.45
2019-03-18T12:40:23.950Z,22.13
2019-03-18T12:42:53.236Z,21.94
2019-03-18T12:45:23.082Z,22.72
2019-03-18T12:47:52.282Z,22.52
2019-03-18T12:50:38.676Z,22.03
2019-03-18T12:52:53.755Z,22.24
2019-03-18T12:55:23.242Z,22.18
2019-03-18T12:57:52.571Z,22.13
2019-03-18T13:00:29.453Z,21.49
2019-03-18T13:02:58.642Z,22.34
2019-03-18T13:05:28.156Z,22.66
2019-03-18T13:07:57.365Z,22.70
2019-03-18T13:10:26.560Z,22.13
2019-03-18T13:12:55.798Z,22.07
2019-03-18T13:15:25.017Z,21.68
2019-03-18T13:17:54.280Z,21.79
2019-03-18T13:20:24.029Z,21.69
2019-03-18T13:22:54.217Z,21.50
2019-03-18T13:25:23.774Z,22.37
2019-03-18T13:27:53.054Z,22.53
2019-03-18T13:30:24.105Z,22.54
2019-03-18T13:32:53.316Z,22.44
2019-03-18T13:35:22.851Z,22.48
2019-03-18T13:37:52.121Z,22.16
2019-03-18T13:40:22.333Z,22.08
2019-03-18T13:42:51.566Z,22.15
2019-03-18T13:45:21.979Z,21.92
2019-03-18T13:47:51.187Z,21.55
2019-03-18T13:50:21.640Z,21.66
2019-03-18T13:52:50.840Z,22.20
2019-03-18T13:55:20.043Z,21.92
2019-03-18T13:57:49.290Z,22.20
2019-03-18T14:00:22.150Z,22.84
2019-03-18T14:02:51.472Z,22.48
2019-03-18T14:05:20.706Z,22.58
2019-03-18T14:07:59.407Z,22.16
2019-03-18T14:10:23.366Z,21.68
2019-03-18T14:12:52.620Z,21.33
2019-03-18T14:15:23.900Z,21.11
2019-03-18T14:17:53.132Z,20.90
2019-03-18T14:20:26.343Z,20.89
2019-03-18T14:22:55.522Z,21.08
2019-03-18T14:25:24.729Z,21.84
2019-03-18T14:27:54.002Z,21.97
2019-03-18T14:30:24.022Z,21.93
2019-03-18T14:32:53.378Z,22.19
2019-03-18T14:35:22.666Z,22.42
2019-03-18T14:37:51.859Z,22.53
2019-03-18T14:40:22.056Z,22.56
2019-03-18T14:42:51.311Z,22.75
2019-03-18T14:45:21.809Z,22.88
2019-03-18T14:47:51.127Z,23.26
2019-03-18T14:50:20.761Z,22.92
2019-03-18T14:52:49.959Z,23.28
2019-03-18T14:55:19.875Z,23.71
2019-03-18T14:57:49.107Z,23.53
2019-03-18T15:00:22.970Z,24.10
2019-03-18T15:02:52.208Z,24.20
2019-03-18T15:05:21.619Z,24.01
2019-03-18T15:07:51.070Z,24.03
2019-03-18T15:10:22.632Z,23.92
2019-03-18T15:12:51.903Z,23.80
2019-03-18T15:15:21.109Z,24.71
2019-03-18T15:17:50.234Z,25.11
2019-03-18T15:20:21.873Z,26.60
2019-03-18T15:22:51.032Z,27.95
2019-03-18T15:25:22.321Z,28.78
2019-03-18T15:27:51.719Z,29.18
2019-03-18T15:30:21.524Z,29.82
2019-03-18T15:32:50.724Z,30.65
2019-03-18T15:35:19.882Z,30.99
2019-03-18T15:37:49.088Z,30.80
2019-03-18T15:40:22.662Z,31.06
2019-03-18T15:42:51.979Z,31.63
2019-03-18T15:45:22.932Z,31.65
2019-03-18T15:47:52.058Z,31.63
2019-03-18T15:50:25.492Z,32.54
2019-03-18T15:52:54.648Z,33.72
2019-03-18T15:55:24.619Z,34.29
2019-03-18T15:57:53.959Z,34.86
2019-03-18T16:00:28.743Z,35.53
2019-03-18T16:02:57.882Z,35.57
2019-03-18T16:05:27.193Z,35.66
2019-03-18T16:07:56.329Z,35.07
2019-03-18T16:10:27.123Z,34.81
2019-03-18T16:12:56.276Z,35.20
2019-03-18T16:15:25.412Z,35.37
2019-03-18T16:17:54.484Z,35.15
2019-03-18T16:20:27.974Z,35.09
2019-03-18T16:22:57.174Z,35.42
2019-03-18T16:25:26.404Z,35.96
2019-03-18T16:27:55.619Z,36.28
2019-03-18T16:30:24.803Z,36.51
2019-03-18T16:32:53.951Z,36.97
2019-03-18T16:35:23.186Z,37.39
2019-03-18T16:37:52.311Z,37.62
2019-03-18T16:40:22.412Z,37.82
2019-03-18T16:42:51.601Z,38.06
2019-03-18T16:45:21.134Z,38.28
2019-03-18T16:47:50.448Z,38.56
2019-03-18T16:50:26.982Z,38.82
2019-03-18T16:52:56.104Z,38.89
2019-03-18T16:55:25.314Z,39.16
2019-03-18T16:57:54.545Z,39.34
2019-03-18T17:00:28.101Z,39.40
2019-03-18T17:02:57.299Z,39.63
2019-03-18T17:05:26.488Z,39.81
2019-03-18T17:07:55.652Z,39.99
2019-03-18T17:10:25.027Z,40.16
2019-03-18T17:12:54.276Z,40.36
2019-03-18T17:15:23.662Z,40.49
2019-03-18T17:17:52.810Z,40.54
2019-03-18T17:20:22.397Z,40.62
2019-03-18T17:22:52.182Z,40.67
2019-03-18T17:25:24.336Z,40.87
2019-03-18T17:27:53.666Z,41.04
2019-03-18T17:30:26.497Z,41.18
2019-03-18T17:32:54.586Z,41.13
2019-03-18T17:35:23.785Z,41.35
2019-03-18T17:37:53.088Z,41.50
2019-03-18T17:40:22.231Z,41.52
2019-03-18T17:42:51.405Z,41.54
2019-03-18T17:45:20.547Z,41.74
2019-03-18T17:47:49.667Z,41.79
2019-03-18T17:50:26.106Z,41.89
2019-03-18T17:53:02.405Z,42.07
2019-03-18T17:55:26.380Z,42.14
2019-03-18T17:57:55.629Z,42.29
2019-03-18T18:00:26.406Z,42.35
2019-03-18T18:02:55.613Z,42.47
2019-03-18T18:05:24.964Z,42.52
2019-03-18T18:07:54.154Z,42.48
2019-03-18T18:10:23.366Z,42.33
2019-03-18T18:12:52.694Z,42.51
2019-03-18T18:15:21.957Z,42.60
2019-03-18T18:17:51.151Z,42.74
2019-03-18T18:20:20.459Z,42.52
2019-03-18T18:22:49.772Z,42.82
2019-03-18T18:25:18.982Z,43.12
2019-03-18T18:27:48.160Z,42.98
2019-03-18T18:30:18.474Z,42.93
2019-03-18T18:32:47.784Z,42.82
2019-03-18T18:35:16.975Z,43.17
2019-03-18T18:37:46.096Z,43.05
2019-03-18T18:40:23.446Z,43.34
2019-03-18T18:42:52.665Z,43.38
2019-03-18T18:45:22.004Z,43.57
2019-03-18T18:47:51.367Z,43.91
2019-03-18T18:50:20.586Z,44.06
2019-03-18T18:52:49.809Z,44.20
2019-03-18T18:55:19.056Z,44.28
2019-03-18T18:57:48.204Z,44.52
2019-03-18T19:00:18.943Z,44.59
2019-03-18T19:02:48.289Z,44.74
2019-03-18T19:05:18.099Z,44.76
2019-03-18T19:07:47.327Z,44.99
2019-03-18T19:10:20.448Z,45.08
2019-03-18T19:12:49.652Z,45.19
2019-03-18T19:15:40.316Z,45.33
2019-03-18T19:18:09.700Z,45.37
2019-03-18T19:20:40.617Z,45.38
2019-03-18T19:23:09.830Z,45.53
2019-03-18T19:25:39.125Z,45.68
2019-03-18T19:28:08.398Z,45.59
2019-03-18T19:30:37.718Z,45.71
2019-03-18T19:33:06.994Z,45.86
2019-03-18T19:35:36.216Z,45.98
2019-03-18T19:38:05.475Z,46.08
2019-03-18T19:40:34.741Z,46.25
2019-03-18T19:43:03.907Z,46.24
2019-03-18T19:45:33.164Z,46.29
2019-03-18T19:48:02.375Z,46.44
2019-03-18T19:50:32.864Z,46.51
2019-03-18T19:53:02.237Z,46.57
2019-03-18T19:55:31.475Z,46.55
2019-03-18T19:58:00.643Z,46.70
2019-03-18T20:00:30.979Z,46.68
2019-03-18T20:03:00.286Z,46.88
2019-03-18T20:05:29.577Z,46.87
2019-03-18T20:07:58.699Z,46.82
2019-03-18T20:10:27.902Z,46.57
2019-03-18T20:12:57.091Z,46.50
2019-03-18T20:15:26.332Z,46.60
2019-03-18T20:17:55.551Z,46.76
2019-03-18T20:20:24.827Z,46.69
2019-03-18T20:22:54.071Z,46.71
2019-03-18T20:25:23.300Z,46.74
2019-03-18T20:27:52.598Z,46.77
2019-03-18T20:30:22.651Z,46.65
2019-03-18T20:32:52.064Z,46.66
2019-03-18T20:35:23.333Z,46.70
2019-03-18T20:37:52.686Z,46.82
2019-03-18T20:40:22.111Z,46.88
2019-03-18T20:42:51.317Z,47.02
2019-03-18T20:45:21.978Z,46.92
2019-03-18T20:47:51.098Z,46.92
2019-03-18T20:50:25.274Z,46.94
2019-03-18T20:52:54.512Z,46.95
2019-03-18T20:55:23.863Z,46.89
2019-03-18T20:57:53.185Z,47.08
2019-03-18T21:00:24.464Z,47.27
2019-03-18T21:02:53.884Z,47.24
2019-03-18T21:05:25.099Z,47.42
2019-03-18T21:07:54.053Z,47.45
2019-03-18T21:10:23.266Z,47.54
2019-03-18T21:12:52.475Z,47.58
2019-03-18T21:15:21.778Z,47.72
2019-03-18T21:17:51.054Z,47.82
2019-03-18T21:20:28.234Z,47.85
2019-03-18T21:22:57.490Z,48.20
2019-03-18T21:25:26.667Z,48.67
2019-03-18T21:27:55.834Z,48.83
2019-03-18T21:30:25.092Z,48.97
2019-03-18T21:32:54.438Z,49.16
2019-03-18T21:35:23.580Z,49.33
2019-03-18T21:37:52.647Z,49.63
2019-03-18T21:40:22.395Z,50.04
2019-03-18T21:42:51.532Z,50.35
2019-03-18T21:45:23.439Z,50.56
2019-03-18T21:47:53.192Z,50.91
2019-03-18T21:50:22.496Z,51.17
2019-03-18T21:52:51.706Z,51.48
2019-03-18T21:55:20.906Z,51.43
2019-03-18T21:57:50.316Z,51.54
2019-03-18T22:00:20.747Z,51.50
2019-03-18T22:02:50.162Z,51.58
2019-03-18T22:05:19.444Z,51.55
2019-03-18T22:07:48.766Z,51.53
2019-03-18T22:10:21.825Z,51.58
2019-03-18T22:12:51.083Z,51.70
2019-03-18T22:15:20.333Z,51.58
2019-03-18T22:17:49.538Z,51.60
2019-03-18T22:20:19.795Z,51.51
2019-03-18T22:22:48.969Z,51.56
2019-03-18T22:25:18.123Z,51.37
2019-03-18T22:27:47.361Z,51.10
2019-03-18T22:30:19.927Z,51.42
2019-03-18T22:32:49.243Z,51.27
2019-03-18T22:35:18.484Z,51.19
2019-03-18T22:37:47.681Z,50.92
2019-03-18T22:40:17.847Z,50.92
2019-03-18T22:42:47.073Z,50.93
2019-03-18T22:45:17.287Z,51.03
2019-03-18T22:47:46.570Z,50.91
2019-03-18T22:50:17.500Z,51.00
2019-03-18T22:52:46.731Z,51.28
2019-03-18T22:55:16.128Z,51.22
2019-03-18T22:57:45.357Z,50.97
2019-03-18T23:00:34.980Z,51.24
2019-03-18T23:03:04.718Z,51.24
2019-03-18T23:05:33.923Z,51.20
2019-03-18T23:08:03.434Z,51.40
2019-03-18T23:10:33.203Z,51.45
2019-03-18T23:13:02.464Z,51.33
2019-03-18T23:15:31.669Z,51.41
2019-03-18T23:18:00.913Z,51.31
2019-03-18T23:20:30.090Z,51.37
2019-03-18T23:22:59.228Z,51.22
2019-03-18T23:25:28.389Z,51.14
2019-03-18T23:27:57.516Z,50.67
2019-03-18T23:30:26.720Z,51.06
2019-03-18T23:32:55.954Z,50.37
2019-03-18T23:35:25.218Z,50.45
2019-03-18T23:37:54.533Z,50.55
2019-03-18T23:40:23.764Z,50.29
2019-03-18T23:42:53.054Z,49.70
2019-03-18T23:45:22.246Z,49.74
2019-03-18T23:47:52.354Z,49.91
2019-03-18T23:50:21.470Z,49.62
2019-03-18T23:52:50.681Z,49.05
2019-03-18T23:55:20.203Z,49.00
2019-03-18T23:57:49.673Z,49.28
